Time;durP1;ratioP1;P1;durP2;ratioP2;P2;SDS_P1;SDS_P2;PMS_P1;PMS_P2;Temp;Humidity;BMP_temperature;BMP_pressure;BME280_temperature;BME280_humidity;BME280_pressure;Samples;Min_cycle;Max_cycle;Signal;HPM_P1;HPM_P2
2022/07/01 00:00:50;;;;;;;2.53;0.80;;;22.90;99.90;;;;;;5074788;28;20032;-89
2022/07/01 00:03:16;;;;;;;1.80;0.60;;;22.80;99.90;;;;;;5073568;28;20020;-88
2022/07/01 00:05:42;;;;;;;2.53;0.70;;;22.80;99.90;;;;;;5074724;28;20027;-89
2022/07/01 00:08:08;;;;;;;3.45;1.00;;;22.80;99.90;;;;;;5073446;28;20017;-89
2022/07/01 00:10:35;;;;;;;2.65;0.95;;;22.80;99.90;;;;;;5073301;28;20032;-89
2022/07/01 00:13:01;;;;;;;3.40;1.13;;;22.80;99.90;;;;;;5073188;28;20021;-89
2022/07/01 00:15:27;;;;;;;1.75;0.77;;;22.80;99.90;;;;;;5073228;28;20036;-89
2022/07/01 00:17:53;;;;;;;1.48;0.80;;;22.80;99.90;;;;;;5074467;28;20024;-89
2022/07/01 00:20:19;;;;;;;1.92;0.73;;;22.80;99.90;;;;;;5074225;28;20029;-89
2022/07/01 00:22:44;;;;;;;2.70;0.70;;;22.70;99.90;;;;;;5073034;28;20047;-90
2022/07/01 00:25:10;;;;;;;1.88;0.90;;;22.80;99.90;;;;;;5073300;28;20029;-89
2022/07/01 00:27:40;;;;;;;2.13;0.60;;;22.70;99.90;;;;;;5073235;28;20021;-90
2022/07/01 00:30:08;;;;;;;3.83;0.63;;;22.70;99.90;;;;;;5074198;28;20020;-89
2022/07/01 00:32:34;;;;;;;2.15;0.88;;;22.70;99.90;;;;;;5072521;28;20025;-90
2022/07/01 00:35:00;;;;;;;1.52;0.70;;;22.70;99.90;;;;;;5072933;28;20020;-90
2022/07/01 00:37:26;;;;;;;2.65;0.70;;;22.70;99.90;;;;;;5072852;28;20024;-90
2022/07/01 00:39:51;;;;;;;1.95;0.60;;;22.70;99.90;;;;;;5072923;28;20064;-90
2022/07/01 00:42:17;;;;;;;2.92;0.45;;;22.70;99.90;;;;;;5072726;28;20063;-90
2022/07/01 00:44:43;;;;;;;2.30;0.68;;;22.70;99.90;;;;;;5072812;28;20024;-89
2022/07/01 00:47:13;;;;;;;2.38;0.75;;;22.70;99.90;;;;;;5072772;28;20024;-89
2022/07/01 00:49:39;;;;;;;1.95;0.50;;;22.70;99.90;;;;;;5073044;28;20119;-89
2022/07/01 00:52:07;;;;;;;2.78;0.50;;;22.60;99.90;;;;;;5074075;28;20075;-89
2022/07/01 00:54:36;;;;;;;2.95;0.75;;;22.60;99.90;;;;;;5072405;28;20029;-90
2022/07/01 00:57:10;;;;;;;2.10;0.65;;;22.60;99.90;;;;;;5074628;28;20142;-90
2022/07/01 00:59:37;;;;;;;0.75;0.40;;;22.60;99.90;;;;;;5073196;28;20025;-90
2022/07/01 01:02:04;;;;;;;2.10;0.73;;;22.60;99.90;;;;;;5072756;28;20119;-89
2022/07/01 01:04:29;;;;;;;0.88;0.50;;;22.60;99.90;;;;;;5074200;28;20429;-90
2022/07/01 01:06:56;;;;;;;3.35;0.80;;;22.60;99.90;;;;;;5072818;28;20103;-90
2022/07/01 01:09:22;;;;;;;0.93;0.57;;;22.60;99.90;;;;;;5073087;28;20059;-89
2022/07/01 01:11:48;;;;;;;3.13;0.70;;;22.60;99.90;;;;;;5072719;28;20024;-89
2022/07/01 01:14:13;;;;;;;1.63;0.50;;;22.50;99.90;;;;;;5074258;28;20031;-89
2022/07/01 01:16:39;;;;;;;5.93;0.68;;;22.50;99.90;;;;;;5073201;28;20025;-90
2022/07/01 01:19:06;;;;;;;2.60;0.60;;;22.50;99.90;;;;;;5074266;28;20066;-89
2022/07/01 01:21:33;;;;;;;1.30;0.52;;;22.50;99.90;;;;;;5072991;28;20533;-89
2022/07/01 01:23:58;;;;;;;1.27;0.52;;;22.50;99.90;;;;;;5072997;28;20108;-89
2022/07/01 01:26:25;;;;;;;0.88;0.50;;;22.50;99.90;;;;;;5072484;28;20028;-89
2022/07/01 01:28:51;;;;;;;1.20;0.50;;;22.50;99.90;;;;;;5072555;28;20115;-89
2022/07/01 01:31:28;;;;;;;0.80;0.40;;;22.50;99.90;;;;;;5072418;28;20025;-89
2022/07/01 01:33:54;;;;;;;2.70;0.60;;;22.40;99.90;;;;;;5073280;28;20463;-89
2022/07/01 01:36:19;;;;;;;2.33;0.60;;;22.40;99.90;;;;;;5072357;28;20162;-89
2022/07/01 01:38:45;;;;;;;3.25;0.70;;;22.50;99.90;;;;;;5072471;28;20111;-90
2022/07/01 01:41:11;;;;;;;1.58;0.57;;;22.40;99.90;;;;;;5072467;28;20025;-89
2022/07/01 01:43:37;;;;;;;2.40;0.70;;;22.40;99.90;;;;;;5072815;28;20040;-89
2022/07/01 01:46:03;;;;;;;1.75;0.73;;;22.40;99.90;;;;;;5077433;28;20490;-91
2022/07/01 01:48:30;;;;;;;1.42;0.60;;;22.40;99.90;;;;;;5076139;28;20479;-90
2022/07/01 01:50:56;;;;;;;3.08;0.70;;;22.40;99.90;;;;;;5075993;28;20422;-90
2022/07/01 01:53:22;;;;;;;3.03;0.70;;;22.40;99.90;;;;;;5076400;28;20024;-90
2022/07/01 01:55:48;;;;;;;4.65;0.60;;;22.30;99.90;;;;;;5076145;28;20074;-90
2022/07/01 01:58:14;;;;;;;1.73;0.70;;;22.30;99.90;;;;;;5077560;28;20032;-90
2022/07/01 02:00:40;;;;;;;2.08;0.80;;;22.30;99.90;;;;;;5077423;28;20028;-91
2022/07/01 02:03:05;;;;;;;1.10;0.63;;;22.30;99.90;;;;;;5076132;28;20400;-91
2022/07/01 02:05:31;;;;;;;1.70;0.68;;;22.30;99.90;;;;;;5075566;28;20070;-90
2022/07/01 02:07:57;;;;;;;1.60;0.50;;;22.30;99.90;;;;;;5075824;28;20541;-90
2022/07/01 02:10:22;;;;;;;2.10;0.60;;;22.30;99.90;;;;;;5077188;28;20020;-90
2022/07/01 02:12:48;;;;;;;1.95;0.70;;;22.30;99.90;;;;;;5075721;28;20032;-90
2022/07/01 02:15:14;;;;;;;1.52;0.65;;;22.30;99.90;;;;;;5077082;28;20483;-89
2022/07/01 02:17:40;;;;;;;1.48;0.60;;;22.20;99.90;;;;;;5075746;28;20028;-90
2022/07/01 02:20:06;;;;;;;2.55;0.77;;;22.20;99.90;;;;;;5075715;28;20549;-89
2022/07/01 02:22:32;;;;;;;1.13;0.50;;;22.30;99.90;;;;;;5075336;28;20087;-89
2022/07/01 02:24:57;;;;;;;0.70;0.50;;;22.30;99.90;;;;;;5075547;28;20025;-89
2022/07/01 02:27:23;;;;;;;1.67;0.45;;;22.20;99.90;;;;;;5075901;28;20111;-90
2022/07/01 02:29:49;;;;;;;1.25;0.60;;;22.20;99.90;;;;;;5076767;28;20021;-90
2022/07/01 02:32:14;;;;;;;1.48;0.60;;;22.20;99.90;;;;;;5076939;28;20030;-89
2022/07/01 02:34:40;;;;;;;1.30;0.50;;;22.20;99.90;;;;;;5075580;28;20116;-89
2022/07/01 02:37:06;;;;;;;2.72;0.50;;;22.20;99.90;;;;;;5075004;28;20059;-90
2022/07/01 02:39:34;;;;;;;1.58;0.80;;;22.10;99.90;;;;;;5075282;28;20036;-89
2022/07/01 02:44:44;;;;;;;2.42;0.50;;;22.10;99.90;;;;;;5076739;28;20031;-89
2022/07/01 02:47:11;;;;;;;2.15;0.70;;;22.10;99.90;;;;;;5075307;28;20029;-89
2022/07/01 02:49:36;;;;;;;0.50;0.40;;;22.10;99.90;;;;;;5075238;28;20148;-89
2022/07/01 02:52:02;;;;;;;1.95;0.57;;;22.10;99.90;;;;;;5075292;28;20032;-89
2022/07/01 02:54:29;;;;;;;0.98;0.60;;;22.10;99.90;;;;;;5074508;28;20028;-89
2022/07/01 02:56:54;;;;;;;1.42;0.70;;;22.10;99.90;;;;;;5075093;28;20078;-89
2022/07/01 02:59:20;;;;;;;3.97;0.70;;;22.00;99.90;;;;;;5075097;28;20025;-88
2022/07/01 03:01:46;;;;;;;1.52;0.60;;;22.10;99.90;;;;;;5074948;28;20438;-89
2022/07/01 03:04:11;;;;;;;1.52;0.63;;;22.00;99.90;;;;;;5076120;28;20013;-89
2022/07/01 03:06:37;;;;;;;2.38;0.70;;;22.00;99.90;;;;;;5074807;28;20031;-88
2022/07/01 03:09:04;;;;;;;2.38;0.47;;;22.00;99.90;;;;;;5074864;28;20021;-89
2022/07/01 03:11:29;;;;;;;2.92;0.70;;;22.00;99.90;;;;;;5074814;28;20031;-88
2022/07/01 03:13:55;;;;;;;1.33;0.52;;;22.00;99.90;;;;;;5074344;28;20546;-88
2022/07/01 03:16:21;;;;;;;0.70;0.47;;;22.00;99.90;;;;;;5074782;28;20020;-88
2022/07/01 03:18:46;;;;;;;1.20;0.70;;;22.00;99.90;;;;;;5074694;28;20483;-88
2022/07/01 03:21:12;;;;;;;1.02;0.50;;;21.90;99.90;;;;;;5074446;28;20186;-88
2022/07/01 03:23:38;;;;;;;1.27;0.60;;;21.90;99.90;;;;;;5074347;28;20064;-88
2022/07/01 03:26:04;;;;;;;1.00;0.68;;;21.90;99.90;;;;;;5074438;28;20074;-88
2022/07/01 03:28:31;;;;;;;0.50;0.43;;;21.90;99.90;;;;;;5076137;28;20100;-88
2022/07/01 03:30:57;;;;;;;1.80;0.50;;;21.90;99.90;;;;;;5074569;28;20024;-88
2022/07/01 03:33:23;;;;;;;1.45;0.57;;;21.90;99.90;;;;;;5074241;28;20395;-88
2022/07/01 03:35:48;;;;;;;1.27;0.60;;;21.90;99.90;;;;;;5074160;28;20024;-87
2022/07/01 03:38:14;;;;;;;0.55;0.50;;;21.90;99.90;;;;;;5074231;28;20376;-88
2022/07/01 03:40:40;;;;;;;0.90;0.50;;;21.90;99.90;;;;;;5074354;28;20471;-87
2022/07/01 03:43:05;;;;;;;1.70;0.50;;;21.90;99.90;;;;;;5073970;28;20032;-87
2022/07/01 03:45:31;;;;;;;0.80;0.50;;;21.90;99.90;;;;;;5075138;28;20028;-87
2022/07/01 03:47:58;;;;;;;0.70;0.50;;;21.80;99.90;;;;;;5073854;28;20035;-88
2022/07/01 03:50:25;;;;;;;1.45;0.40;;;21.90;99.90;;;;;;5075128;28;20021;-87
2022/07/01 03:55:35;;;;;;;;;;;21.90;99.90;;;;;;5076295;28;20545;-87
2022/07/01 03:58:01;;;;;;;3.25;0.60;;;21.90;99.90;;;;;;5073738;28;19904;-87
2022/07/01 04:00:28;;;;;;;2.67;0.75;;;21.80;99.90;;;;;;5073467;28;20399;-87
2022/07/01 04:02:53;;;;;;;0.55;0.50;;;21.80;99.90;;;;;;5073490;28;20025;-87
2022/07/01 04:05:19;;;;;;;1.00;0.57;;;21.80;99.90;;;;;;5073567;28;20074;-88
2022/07/01 04:07:45;;;;;;;1.13;0.50;;;21.80;99.90;;;;;;5074006;28;20027;-87
2022/07/01 04:10:12;;;;;;;0.95;0.70;;;21.80;99.90;;;;;;5073484;28;20028;-88
2022/07/01 04:12:38;;;;;;;2.10;0.65;;;21.70;99.90;;;;;;5073226;28;20107;-87
2022/07/01 04:15:04;;;;;;;0.85;0.50;;;21.80;99.90;;;;;;5073219;28;20029;-87
2022/07/01 04:17:31;;;;;;;2.03;0.55;;;21.80;99.90;;;;;;5073389;28;20025;-87
2022/07/01 04:19:57;;;;;;;0.60;0.50;;;21.70;99.90;;;;;;5073349;28;20074;-87
2022/07/01 04:22:35;;;;;;;1.00;0.60;;;21.70;99.90;;;;;;5072926;28;20045;-86
2022/07/01 04:25:03;;;;;;;0.40;0.40;;;21.70;99.90;;;;;;5073155;28;20028;-87
2022/07/01 04:27:30;;;;;;;0.73;0.30;;;21.70;99.90;;;;;;5073988;28;20017;-87
2022/07/01 04:29:56;;;;;;;0.50;0.40;;;21.70;99.90;;;;;;5073144;28;20071;-87
2022/07/01 04:32:22;;;;;;;0.43;0.40;;;21.70;99.90;;;;;;5074404;28;20025;-87
2022/07/01 04:34:48;;;;;;;1.08;0.30;;;21.70;99.90;;;;;;5074541;28;20035;-87
2022/07/01 04:37:14;;;;;;;0.35;0.30;;;21.70;99.90;;;;;;5073206;28;20074;-87
2022/07/01 04:39:40;;;;;;;1.15;0.40;;;21.70;99.90;;;;;;5072857;28;20479;-87
2022/07/01 04:42:06;;;;;;;0.40;0.30;;;21.70;99.90;;;;;;5074038;28;20029;-87
2022/07/01 04:44:36;;;;;;;0.40;0.40;;;21.70;99.90;;;;;;5074069;28;20134;-87
2022/07/01 04:47:03;;;;;;;1.10;0.45;;;21.60;99.90;;;;;;5072895;28;20028;-87
2022/07/01 04:49:29;;;;;;;0.80;0.50;;;21.60;99.90;;;;;;5072842;28;20107;-88
2022/07/01 04:51:56;;;;;;;1.35;0.32;;;21.60;99.90;;;;;;5072561;28;20143;-88
2022/07/01 04:54:22;;;;;;;0.40;0.30;;;21.60;99.90;;;;;;5073008;28;20111;-88
2022/07/01 04:56:47;;;;;;;0.73;0.32;;;21.60;99.90;;;;;;5073862;28;20099;-88
2022/07/01 04:59:14;;;;;;;4.38;0.35;;;21.60;99.90;;;;;;5073171;28;20074;-88
2022/07/01 05:01:44;;;;;;;0.88;0.40;;;21.60;99.90;;;;;;5073016;28;20021;-89
2022/07/01 05:04:11;;;;;;;1.13;0.40;;;21.60;99.90;;;;;;5073048;28;20112;-88
2022/07/01 05:06:37;;;;;;;0.68;0.40;;;21.60;99.90;;;;;;5074320;28;20024;-88
2022/07/01 05:09:03;;;;;;;0.55;0.30;;;21.60;99.90;;;;;;5074283;28;20035;-89
2022/07/01 05:11:28;;;;;;;0.93;0.40;;;21.60;99.90;;;;;;5072322;28;20021;-89
2022/07/01 05:13:54;;;;;;;0.70;0.32;;;21.60;99.90;;;;;;5072258;28;20458;-89
2022/07/01 05:16:20;;;;;;;0.52;0.30;;;21.60;99.90;;;;;;5073472;28;20468;-89
2022/07/01 05:24:14;;;;;;;0.85;0.30;;;21.50;99.90;;;;;;5073601;28;20161;-89
2022/07/01 05:26:40;;;;;;;0.38;0.30;;;21.50;99.90;;;;;;5073715;28;20040;-89
2022/07/01 05:29:06;;;;;;;0.50;0.30;;;21.50;99.90;;;;;;5073610;28;20111;-90
2022/07/01 05:31:32;;;;;;;0.90;0.40;;;21.50;99.90;;;;;;5073420;28;20099;-90
2022/07/01 05:33:57;;;;;;;0.85;0.40;;;21.50;99.90;;;;;;5072088;28;20059;-89
2022/07/01 05:36:23;;;;;;;0.70;0.45;;;21.50;99.90;;;;;;5072508;28;20055;-89
2022/07/01 05:38:49;;;;;;;0.60;0.40;;;21.50;99.90;;;;;;5073836;28;20024;-90
2022/07/01 05:41:15;;;;;;;3.67;0.52;;;21.50;99.90;;;;;;5072264;28;20024;-90
2022/07/01 05:43:41;;;;;;;0.85;0.30;;;21.50;99.90;;;;;;5073829;28;20468;-90
2022/07/01 05:46:07;;;;;;;0.50;0.30;;;21.50;99.90;;;;;;5072448;28;20024;-90
2022/07/01 05:48:32;;;;;;;1.98;0.50;;;21.50;99.90;;;;;;5073281;28;20024;-90
2022/07/01 05:50:58;;;;;;;2.20;0.47;;;21.50;99.90;;;;;;5072005;28;20115;-90
2022/07/01 05:53:23;;;;;;;3.05;0.43;;;21.50;99.90;;;;;;5072021;28;20503;-89
2022/07/01 05:55:50;;;;;;;0.55;0.40;;;21.40;99.90;;;;;;5071928;28;20422;-89
2022/07/01 05:58:16;;;;;;;1.83;0.32;;;21.50;99.90;;;;;;5071859;28;20476;-89
2022/07/01 06:00:43;;;;;;;1.83;0.30;;;21.40;99.90;;;;;;5071940;28;20063;-90
2022/07/01 06:03:12;;;;;;;1.00;0.50;;;21.40;99.90;;;;;;5073045;28;20471;-90
2022/07/01 06:05:38;;;;;;;0.85;0.40;;;21.40;99.90;;;;;;5071841;28;20392;-90
2022/07/01 06:08:05;;;;;;;2.63;0.40;;;21.40;99.90;;;;;;5072579;28;20537;-90
2022/07/01 06:10:31;;;;;;;0.52;0.30;;;21.40;99.90;;;;;;5071959;28;20021;-90
2022/07/01 06:12:57;;;;;;;0.80;0.40;;;21.40;99.90;;;;;;5071807;28;20621;-91
2022/07/01 06:15:23;;;;;;;3.20;0.60;;;21.40;99.90;;;;;;5073038;28;20043;-90
2022/07/01 06:17:49;;;;;;;1.30;0.85;;;21.40;99.90;;;;;;5071943;28;20116;-89
2022/07/01 06:20:15;;;;;;;1.02;0.50;;;21.40;99.90;;;;;;5071914;28;20124;-90
2022/07/01 06:22:41;;;;;;;1.67;0.70;;;21.30;99.90;;;;;;5071544;28;20127;-90
2022/07/01 06:25:07;;;;;;;1.58;0.45;;;21.40;99.90;;;;;;5073043;28;20021;-90
2022/07/01 06:27:41;;;;;;;2.20;0.50;;;21.30;99.90;;;;;;5072370;28;20020;-90
2022/07/01 06:30:07;;;;;;;1.88;0.60;;;21.30;99.90;;;;;;5073964;28;20024;-91
2022/07/01 06:32:33;;;;;;;1.42;0.47;;;21.30;99.90;;;;;;5076426;28;20040;-91
2022/07/01 06:34:59;;;;;;;1.55;0.50;;;21.30;99.90;;;;;;5077529;28;20025;-91
2022/07/01 06:37:24;;;;;;;1.83;0.70;;;21.30;99.90;;;;;;5075891;28;20062;-91
2022/07/01 06:39:50;;;;;;;1.33;0.38;;;21.30;99.90;;;;;;5077199;28;20021;-91
2022/07/01 06:42:16;;;;;;;1.85;0.40;;;21.30;99.90;;;;;;5076175;28;20501;-91
2022/07/01 06:44:42;;;;;;;2.13;0.57;;;21.20;99.90;;;;;;5076246;28;20059;-91
2022/07/01 06:47:07;;;;;;;1.77;0.50;;;21.30;99.90;;;;;;5075723;28;20364;-91
2022/07/01 06:49:33;;;;;;;2.40;0.50;;;21.30;99.90;;;;;;5075111;28;20029;-91
2022/07/01 06:51:59;;;;;;;0.88;0.52;;;21.30;99.90;;;;;;5075500;28;20048;-91
2022/07/01 06:54:25;;;;;;;0.95;0.40;;;21.30;99.90;;;;;;5075505;28;20017;-91
2022/07/01 06:56:50;;;;;;;1.00;0.40;;;21.30;99.90;;;;;;5075108;28;20017;-91
2022/07/01 06:59:16;;;;;;;1.58;0.60;;;21.30;99.90;;;;;;5076028;28;20016;-90
2022/07/01 07:01:42;;;;;;;1.50;0.40;;;21.30;99.90;;;;;;5074899;28;20507;-89
2022/07/01 07:04:08;;;;;;;1.52;0.50;;;21.30;99.90;;;;;;5074763;28;20040;-89
2022/07/01 07:06:33;;;;;;;1.25;0.50;;;21.30;99.90;;;;;;5075703;28;20047;-90
2022/07/01 07:08:59;;;;;;;1.55;0.38;;;21.30;99.90;;;;;;5075031;28;20025;-90
2022/07/01 07:11:26;;;;;;;0.32;0.22;;;21.20;99.90;;;;;;5074859;28;20021;-90
2022/07/01 07:13:52;;;;;;;1.08;0.50;;;21.20;99.90;;;;;;5074965;28;20020;-89
2022/07/01 07:16:21;;;;;;;0.57;0.30;;;21.30;99.90;;;;;;5075174;28;20498;-91
2022/07/01 07:18:50;;;;;;;1.05;0.60;;;21.20;99.90;;;;;;5075046;28;20038;-90
2022/07/01 07:21:16;;;;;;;1.45;0.50;;;21.20;99.90;;;;;;5074732;28;20024;-90
2022/07/01 07:23:42;;;;;;;0.82;0.40;;;21.20;99.90;;;;;;5074073;28;20032;-89
2022/07/01 07:26:09;;;;;;;0.70;0.30;;;21.20;99.90;;;;;;5075272;28;20028;-90
2022/07/01 07:28:35;;;;;;;1.27;0.43;;;21.20;99.90;;;;;;5074122;28;20025;-90
2022/07/01 07:31:01;;;;;;;1.02;0.43;;;21.20;99.90;;;;;;5074524;28;20035;-89
2022/07/01 07:33:27;;;;;;;1.50;0.25;;;21.20;99.90;;;;;;5073891;28;20024;-89
2022/07/01 07:35:52;;;;;;;2.13;0.32;;;21.20;99.90;;;;;;5073964;28;20024;-89
2022/07/01 09:13:04;;;;;;;1.27;0.30;;;20.60;99.90;;;;;;6182327;23;1334850;-89
2022/07/01 09:15:31;;;;;;;1.17;0.50;;;20.60;99.90;;;;;;6197852;23;20019;-90
2022/07/01 09:18:10;;;;;;;2.00;0.50;;;20.70;99.90;;;;;;6224668;23;20363;-89
2022/07/01 09:20:41;;;;;;;0.98;0.35;;;20.70;99.90;;;;;;6198081;23;20016;-90
2022/07/01 09:23:15;;;;;;;1.17;0.50;;;20.70;99.90;;;;;;6224727;23;20007;-89
2022/07/01 09:25:45;;;;;;;2.60;0.50;;;20.70;99.90;;;;;;6224689;23;20020;-88
2022/07/01 09:28:23;;;;;;;1.65;0.40;;;20.70;99.90;;;;;;6197629;23;20010;-89
2022/07/01 09:30:52;;;;;;;1.48;0.50;;;20.70;99.90;;;;;;6197672;23;20055;-89
2022/07/01 09:33:23;;;;;;;0.88;0.40;;;20.70;99.90;;;;;;6198288;23;20061;-89
2022/07/01 09:35:50;;;;;;;0.90;0.40;;;20.70;99.90;;;;;;6194663;23;20058;-88
2022/07/01 09:38:19;;;;;;;2.05;0.47;;;20.70;99.90;;;;;;6190748;23;20003;-88
2022/07/01 09:41:02;;;;;;;1.02;0.40;;;20.70;99.90;;;;;;6217310;23;20364;-88
2022/07/01 09:43:33;;;;;;;1.15;0.47;;;20.70;99.90;;;;;;6190766;23;20008;-88
2022/07/01 09:46:00;;;;;;;0.60;0.30;;;20.70;99.90;;;;;;6190651;23;20004;-87
2022/07/01 09:48:44;;;;;;;1.77;0.30;;;20.70;99.90;;;;;;6190605;23;20080;-88
2022/07/01 09:51:11;;;;;;;0.52;0.22;;;20.70;99.90;;;;;;6190687;23;20019;-88
2022/07/01 09:53:37;;;;;;;0.55;0.28;;;20.70;99.90;;;;;;6217117;23;20004;-88
2022/07/01 09:56:04;;;;;;;2.20;0.50;;;20.80;99.90;;;;;;6217290;23;20443;-88
2022/07/01 09:58:32;;;;;;;0.70;0.30;;;20.70;99.90;;;;;;6190657;23;20345;-88
2022/07/01 10:00:58;;;;;;;1.33;0.40;;;20.70;99.90;;;;;;6190568;23;20001;-88
2022/07/01 10:03:26;;;;;;;0.55;0.30;;;20.70;99.90;;;;;;6190725;23;20004;-88
2022/07/01 10:05:57;;;;;;;0.98;0.43;;;20.70;99.90;;;;;;6190478;23;20000;-88
2022/07/01 10:08:26;;;;;;;2.15;0.38;;;20.80;99.90;;;;;;6190408;23;20001;-88
2022/07/01 10:11:10;;;;;;;1.92;0.40;;;20.80;99.90;;;;;;6190619;23;20067;-87
2022/07/01 10:13:36;;;;;;;1.27;0.43;;;20.80;99.90;;;;;;6216915;23;20447;-88
2022/07/01 10:16:03;;;;;;;1.73;0.50;;;20.80;99.90;;;;;;6190532;23;19996;-87
2022/07/01 10:18:30;;;;;;;0.95;0.30;;;20.80;99.90;;;;;;6190934;23;20028;-88
2022/07/01 10:20:57;;;;;;;0.77;0.32;;;20.80;99.90;;;;;;6190530;23;20028;-88
2022/07/01 10:23:24;;;;;;;0.98;0.30;;;20.90;99.90;;;;;;6217212;23;20000;-88
2022/07/01 10:25:52;;;;;;;0.85;0.30;;;20.90;99.90;;;;;;6190310;23;20054;-88
2022/07/01 10:28:29;;;;;;;1.17;0.30;;;20.90;99.90;;;;;;6190400;23;20012;-87
2022/07/01 10:31:02;;;;;;;4.15;0.45;;;20.90;99.90;;;;;;6190229;23;20062;-88
2022/07/01 10:33:29;;;;;;;0.82;0.35;;;21.00;99.90;;;;;;6190110;23;20005;-88
2022/07/01 10:35:55;;;;;;;0.98;0.35;;;21.00;99.90;;;;;;6190238;23;20001;-88
2022/07/01 10:38:21;;;;;;;1.13;0.40;;;21.10;99.90;;;;;;6190267;23;20005;-87
2022/07/01 10:40:49;;;;;;;1.30;0.50;;;21.10;99.90;;;;;;6190353;23;20000;-88
2022/07/01 10:43:37;;;;;;;0.52;0.30;;;21.20;99.90;;;;;;6190202;23;20381;-87
2022/07/01 10:46:04;;;;;;;1.55;0.30;;;21.30;99.90;;;;;;6190105;23;20313;-87
2022/07/01 10:48:33;;;;;;;0.77;0.30;;;21.30;99.90;;;;;;6189605;23;20439;-87
2022/07/01 10:51:00;;;;;;;2.13;0.30;;;21.40;99.90;;;;;;6216649;23;20424;-87
2022/07/01 10:53:46;;;;;;;1.58;0.30;;;21.40;99.90;;;;;;6189832;23;20032;-87
2022/07/01 10:56:17;;;;;;;2.50;0.57;;;21.40;99.90;;;;;;6190073;23;20008;-87
2022/07/01 10:58:42;;;;;;;0.40;0.25;;;21.40;99.90;;;;;;6216460;23;20026;-87
2022/07/01 11:01:08;;;;;;;0.60;0.30;;;21.50;99.90;;;;;;6189953;23;20440;-87
2022/07/01 11:03:36;;;;;;;0.65;0.30;;;21.50;99.90;;;;;;6216707;23;20490;-87
2022/07/01 11:06:02;;;;;;;1.35;0.38;;;21.50;99.90;;;;;;6216793;23;20443;-87
2022/07/01 11:08:28;;;;;;;1.02;0.30;;;21.40;99.90;;;;;;6189823;23;20094;-87
2022/07/01 11:10:58;;;;;;;1.85;0.20;;;21.40;99.90;;;;;;6216435;23;19996;-86
2022/07/01 11:13:25;;;;;;;0.50;0.30;;;21.40;99.90;;;;;;6216067;23;20093;-87
2022/07/01 11:15:52;;;;;;;0.47;0.20;;;21.30;99.90;;;;;;6216438;23;20451;-87
2022/07/01 11:18:19;;;;;;;1.63;0.30;;;21.30;99.90;;;;;;6216562;23;20001;-87
2022/07/01 11:20:44;;;;;;;0.77;0.30;;;21.20;99.90;;;;;;6189741;23;20314;-87
2022/07/01 11:23:11;;;;;;;0.88;0.40;;;21.20;99.90;;;;;;6189622;23;20012;-87
2022/07/01 11:25:37;;;;;;;1.13;0.52;;;21.20;99.90;;;;;;6189637;23;19997;-87
2022/07/01 11:28:03;;;;;;;0.60;0.28;;;21.10;99.90;;;;;;6189721;23;19997;-87
2022/07/01 11:30:29;;;;;;;0.70;0.38;;;21.10;99.90;;;;;;6189528;23;20001;-87
2022/07/01 11:32:56;;;;;;;0.88;0.30;;;21.10;99.90;;;;;;6216178;23;20000;-87
2022/07/01 11:41:05;;;;;;;2.50;0.50;;;21.20;99.90;;;;;;6216552;23;20091;-86
2022/07/01 11:43:36;;;;;;;0.88;0.30;;;21.30;99.90;;;;;;6216046;23;19996;-86
2022/07/01 11:46:04;;;;;;;0.85;0.38;;;21.30;99.90;;;;;;6189517;23;20054;-87
2022/07/01 11:48:31;;;;;;;0.40;0.28;;;21.30;99.90;;;;;;6189397;23;20416;-87
2022/07/01 11:50:58;;;;;;;1.02;0.30;;;21.40;99.90;;;;;;6189575;23;20391;-86
2022/07/01 11:53:24;;;;;;;0.52;0.30;;;21.30;99.90;;;;;;6189406;23;20432;-86
2022/07/01 11:55:50;;;;;;;1.85;0.40;;;21.30;99.90;;;;;;6216097;23;20004;-86
2022/07/01 11:58:15;;;;;;;2.17;0.40;;;21.30;99.90;;;;;;6189319;23;20011;-86
2022/07/01 12:00:41;;;;;;;1.15;0.30;;;21.30;99.90;;;;;;6189511;23;20001;-87
2022/07/01 12:03:07;;;;;;;1.85;0.45;;;21.20;99.90;;;;;;6189364;23;20324;-87
2022/07/01 12:05:34;;;;;;;0.98;0.40;;;21.20;99.90;;;;;;6189485;23;20024;-86
2022/07/01 12:08:01;;;;;;;0.50;0.20;;;21.20;99.90;;;;;;6189455;23;20008;-88
2022/07/01 12:10:27;;;;;;;2.88;0.65;;;21.20;99.90;;;;;;6215874;23;20005;-87
2022/07/01 12:12:53;;;;;;;0.40;0.30;;;21.10;99.90;;;;;;6184107;23;20024;-87
2022/07/01 12:15:20;;;;;;;1.60;0.50;;;21.10;99.90;;;;;;6184392;23;20005;-87
2022/07/01 12:17:46;;;;;;;0.60;0.35;;;21.10;99.90;;;;;;6184526;23;20432;-87
2022/07/01 12:20:11;;;;;;;1.05;0.50;;;21.10;99.90;;;;;;6184312;23;20076;-87
2022/07/01 12:22:37;;;;;;;0.90;0.50;;;21.10;99.90;;;;;;6185850;23;20001;-87
2022/07/01 12:25:12;;;;;;;1.63;0.60;;;21.20;99.90;;;;;;6184265;23;20009;-87
2022/07/01 12:27:40;;;;;;;0.43;0.30;;;21.20;99.90;;;;;;6186252;23;20080;-87
2022/07/01 12:30:08;;;;;;;1.83;0.57;;;21.20;99.90;;;;;;6184219;23;20005;-87
2022/07/01 12:32:38;;;;;;;1.05;0.40;;;21.30;99.90;;;;;;6184386;23;20056;-87
2022/07/01 12:35:33;;;;;;;0.77;0.35;;;21.30;99.90;;;;;;6184327;23;20005;-87
2022/07/01 12:37:52;;;;;;;1.95;0.30;;;21.30;99.90;;;;;;6185714;23;19997;-86
2022/07/01 12:40:24;;;;;;;1.05;0.32;;;21.40;99.90;;;;;;6184272;23;20426;-87
2022/07/01 12:42:50;;;;;;;1.17;0.50;;;21.30;99.90;;;;;;6184252;23;20008;-87
2022/07/01 12:45:21;;;;;;;0.73;0.38;;;21.30;99.90;;;;;;6185757;23;20071;-87
2022/07/01 12:47:49;;;;;;;0.40;0.30;;;21.30;99.90;;;;;;6184393;23;20122;-87
2022/07/01 12:50:21;;;;;;;1.55;0.40;;;21.30;99.90;;;;;;6184669;23;20012;-87
2022/07/01 12:53:06;;;;;;;0.50;0.40;;;21.30;99.90;;;;;;6185851;23;20009;-87
2022/07/01 12:55:46;;;;;;;1.17;0.43;;;21.30;99.90;;;;;;6184104;23;20340;-87
2022/07/01 12:58:21;;;;;;;1.27;0.50;;;21.40;99.90;;;;;;6184182;23;20004;-87
2022/07/01 13:00:51;;;;;;;2.13;0.70;;;21.40;99.90;;;;;;6184178;23;20075;-86
2022/07/01 13:03:25;;;;;;;1.52;0.47;;;21.40;99.90;;;;;;6185678;23;19997;-87
2022/07/01 13:05:52;;;;;;;1.42;0.30;;;21.40;99.90;;;;;;6185747;23;20499;-87
2022/07/01 13:08:19;;;;;;;0.95;0.30;;;21.50;99.90;;;;;;6185570;23;19997;-87
2022/07/01 13:10:46;;;;;;;1.00;0.50;;;21.50;99.90;;;;;;6186031;23;19993;-87
2022/07/01 13:13:12;;;;;;;1.13;0.32;;;21.50;99.90;;;;;;6185566;23;20017;-87
2022/07/01 13:15:38;;;;;;;1.10;0.50;;;21.60;99.90;;;;;;6185725;23;20032;-87
2022/07/01 13:18:05;;;;;;;1.35;0.40;;;21.70;99.90;;;;;;6186023;23;20001;-87
2022/07/01 13:20:31;;;;;;;0.85;0.25;;;21.80;99.90;;;;;;6185901;23;20005;-87
2022/07/01 13:22:56;;;;;;;0.40;0.30;;;21.80;99.90;;;;;;6185807;23;20012;-87
2022/07/01 13:25:22;;;;;;;0.82;0.50;;;21.80;99.90;;;;;;6185880;23;20009;-87
2022/07/01 13:27:48;;;;;;;1.48;0.43;;;21.80;99.90;;;;;;6185940;23;20009;-87
2022/07/01 13:30:15;;;;;;;0.90;0.35;;;21.80;99.90;;;;;;6185337;23;20092;-87
2022/07/01 13:32:41;;;;;;;0.95;0.50;;;21.70;99.90;;;;;;6187124;23;20337;-87
2022/07/01 13:35:09;;;;;;;0.77;0.40;;;21.70;99.90;;;;;;6187382;23;20009;-87
2022/07/01 13:37:35;;;;;;;1.55;0.52;;;21.60;99.90;;;;;;6186058;23;20426;-87
2022/07/01 13:40:01;;;;;;;0.93;0.50;;;21.60;99.90;;;;;;6185874;23;20036;-87
2022/07/01 13:42:26;;;;;;;1.70;0.40;;;21.50;99.90;;;;;;6187439;23;19997;-87
2022/07/01 13:44:52;;;;;;;0.98;0.40;;;21.50;99.90;;;;;;6186357;23;20126;-87
2022/07/01 13:47:18;;;;;;;1.05;0.32;;;21.40;99.90;;;;;;6186603;23;20064;-87
2022/07/01 13:49:44;;;;;;;1.88;0.50;;;21.40;99.90;;;;;;6185564;23;20459;-87
2022/07/01 13:52:10;;;;;;;0.80;0.50;;;21.40;99.90;;;;;;6185606;23;20459;-87
2022/07/01 13:54:36;;;;;;;1.10;0.50;;;21.40;99.90;;;;;;6185457;23;20008;-87
2022/07/01 13:57:02;;;;;;;3.45;0.57;;;21.50;99.90;;;;;;6185527;23;20005;-87
2022/07/01 13:59:28;;;;;;;1.38;0.55;;;21.60;99.90;;;;;;6187004;23;20024;-87
2022/07/01 14:01:54;;;;;;;1.38;0.40;;;21.60;99.90;;;;;;6185531;23;20005;-87
2022/07/01 14:04:20;;;;;;;0.88;0.40;;;21.60;99.90;;;;;;6185370;23;20431;-87
2022/07/01 14:06:46;;;;;;;0.88;0.40;;;21.60;99.90;;;;;;6185449;23;20012;-87
2022/07/01 14:09:12;;;;;;;0.65;0.30;;;21.70;99.90;;;;;;6187282;23;20005;-87
2022/07/01 14:11:38;;;;;;;0.70;0.40;;;21.80;99.90;;;;;;6186814;23;20011;-87
2022/07/01 14:14:03;;;;;;;1.63;0.40;;;22.00;99.90;;;;;;6184979;23;20083;-87
2022/07/01 14:16:29;;;;;;;1.35;0.40;;;22.20;99.90;;;;;;6185218;23;20005;-87
2022/07/01 14:18:56;;;;;;;1.00;0.40;;;22.40;99.90;;;;;;6185178;23;20005;-87
2022/07/01 14:21:23;;;;;;;3.33;0.40;;;22.60;99.90;;;;;;6185147;23;20058;-87
2022/07/01 14:23:49;;;;;;;1.55;0.40;;;22.70;99.90;;;;;;6185218;23;20051;-87
2022/07/01 14:26:15;;;;;;;1.50;0.43;;;22.80;99.90;;;;;;6185235;23;20001;-86
2022/07/01 14:28:41;;;;;;;0.63;0.40;;;22.90;99.90;;;;;;6185192;23;20093;-87
2022/07/01 14:31:07;;;;;;;0.45;0.30;;;22.90;99.90;;;;;;6185119;23;20032;-87
2022/07/01 14:33:33;;;;;;;0.55;0.40;;;22.70;99.90;;;;;;6185075;23;20060;-87
2022/07/01 14:35:59;;;;;;;1.40;0.55;;;22.60;99.90;;;;;;6186675;23;20425;-87
2022/07/01 14:38:25;;;;;;;1.95;0.30;;;22.40;99.90;;;;;;6185003;23;20340;-86